Time;durP1;ratioP1;P1;durP2;ratioP2;P2;SDS_P1;SDS_P2;PMS_P1;PMS_P2;Temp;Humidity;BMP_temperature;BMP_pressure;BME280_temperature;BME280_humidity;BME280_pressure;Samples;Min_cycle;Max_cycle;Signal;HPM_P1;HPM_P2
2022/03/14 00:00:19;;;;;;;;;;;11.60;59.80;;;;;;5070000;28;19916;-79
2022/03/14 00:02:44;;;;;;;;;;;11.60;60.40;;;;;;5052524;28;19924;-79
2022/03/14 00:05:14;;;;;;;;;;;11.60;60.50;;;;;;5052178;28;20385;-79
2022/03/14 00:07:41;;;;;;;;;;;11.60;60.40;;;;;;5046736;28;19913;-79
2022/03/14 00:10:07;;;;;;;;;;;11.60;60.70;;;;;;5042989;28;19916;-78
2022/03/14 00:12:33;;;;;;;;;;;11.60;60.90;;;;;;5044287;28;19948;-79
2022/03/14 00:14:59;;;;;;;;;;;11.60;61.50;;;;;;5045814;28;19914;-79
2022/03/14 00:17:26;;;;;;;;;;;11.60;61.80;;;;;;5041166;28;19917;-79
2022/03/14 00:19:52;;;;;;;;;;;11.60;61.90;;;;;;5051221;28;19988;-79
2022/03/14 00:22:20;;;;;;;;;;;11.60;62.00;;;;;;5045472;28;19920;-78
2022/03/14 00:24:46;;;;;;;;;;;11.60;62.40;;;;;;5038544;28;20384;-78
2022/03/14 00:27:11;;;;;;;;;;;11.60;62.70;;;;;;5033408;28;20012;-78
2022/03/14 00:29:37;;;;;;;;;;;11.60;62.70;;;;;;5051921;28;19925;-79
2022/03/14 00:32:02;;;;;;;;;;;11.60;62.70;;;;;;5040757;28;19952;-78
2022/03/14 00:34:28;;;;;;;;;;;11.60;63.10;;;;;;5039950;28;19996;-79
2022/03/14 00:36:54;;;;;;;;;;;11.50;63.10;;;;;;5043001;28;19913;-78
2022/03/14 00:39:19;;;;;;;;;;;11.60;63.10;;;;;;5052650;28;19912;-78
2022/03/14 00:41:45;;;;;;;;;;;11.50;62.80;;;;;;5052835;28;19917;-79
2022/03/14 00:44:15;;;;;;;;;;;11.40;63.10;;;;;;5040228;28;19967;-79
2022/03/14 00:46:41;;;;;;;;;;;11.50;63.20;;;;;;5041477;28;19909;-79
2022/03/14 00:49:07;;;;;;;;;;;11.40;63.50;;;;;;5044630;28;19917;-79
2022/03/14 00:51:34;;;;;;;;;;;11.30;63.40;;;;;;5047853;28;19916;-79
2022/03/14 00:54:00;;;;;;;;;;;11.30;63.80;;;;;;5040458;28;19916;-79
2022/03/14 00:56:27;;;;;;;;;;;11.20;64.00;;;;;;5045093;28;19913;-80
2022/03/14 00:58:52;;;;;;;;;;;11.20;63.60;;;;;;5046552;28;19909;-79
2022/03/14 01:01:18;;;;;;;;;;;11.10;63.40;;;;;;5048608;28;19993;-79
2022/03/14 01:03:43;;;;;;;;;;;11.10;63.20;;;;;;5049015;28;19976;-79
2022/03/14 01:06:09;;;;;;;;;;;11.00;63.20;;;;;;5054906;28;19913;-78
2022/03/14 01:08:34;;;;;;;;;;;11.00;63.60;;;;;;5041948;28;19945;-79
2022/03/14 01:11:00;;;;;;;;;;;11.00;63.90;;;;;;5043975;28;19916;-79
2022/03/14 01:13:25;;;;;;;;;;;11.00;64.60;;;;;;5036892;28;20339;-78
2022/03/14 01:15:51;;;;;;;;;;;11.00;64.60;;;;;;5052852;28;19958;-79
2022/03/14 01:18:17;;;;;;;;;;;11.00;64.60;;;;;;5051965;28;19917;-79
2022/03/14 01:20:42;;;;;;;;;;;11.00;64.60;;;;;;5051555;28;19936;-79
2022/03/14 01:23:08;;;;;;;;;;;11.10;64.80;;;;;;5054026;28;20003;-79
2022/03/14 01:25:36;;;;;;;;;;;11.10;64.90;;;;;;5076889;28;19948;-79
2022/03/14 01:28:02;;;;;;;;;;;11.10;65.10;;;;;;5063111;28;19932;-78
2022/03/14 01:30:28;;;;;;;;;;;11.20;64.80;;;;;;5050319;28;19917;-79
2022/03/14 01:32:53;;;;;;;;;;;11.10;65.30;;;;;;5040337;28;19913;-79
2022/03/14 01:35:19;;;;;;;;;;;11.10;65.50;;;;;;5043001;28;19952;-79
2022/03/14 01:37:49;;;;;;;;;;;11.20;65.50;;;;;;5047786;28;19917;-78
2022/03/14 01:40:15;;;;;;;;;;;11.10;66.00;;;;;;5043974;28;19924;-79
2022/03/14 01:42:41;;;;;;;;;;;11.10;66.30;;;;;;5036692;28;19974;-79
2022/03/14 01:45:07;;;;;;;;;;;11.10;66.90;;;;;;5053083;28;19913;-78
2022/03/14 01:47:34;;;;;;;;;;;11.10;68.40;;;;;;5055590;28;20158;-78
2022/03/14 01:49:59;;;;;;;;;;;11.00;68.90;;;;;;5052701;28;19927;-78
2022/03/14 01:52:25;;;;;;;;;;;11.00;70.20;;;;;;5055640;28;20245;-78
2022/03/14 01:54:51;;;;;;;;;;;10.90;71.40;;;;;;5045305;28;19944;-78
2022/03/14 01:57:16;;;;;;;;;;;10.90;70.80;;;;;;5059086;28;19982;-77
2022/03/14 01:59:42;;;;;;;;;;;10.80;70.50;;;;;;5035695;28;19913;-78
2022/03/14 02:02:07;;;;;;;;;;;10.70;69.00;;;;;;5034034;28;19913;-77
2022/03/14 02:04:33;;;;;;;;;;;10.70;69.60;;;;;;5050661;28;19913;-77
2022/03/14 02:06:58;;;;;;;;;;;10.70;69.70;;;;;;5041781;28;19917;-78
2022/03/14 02:09:24;;;;;;;;;;;10.70;70.30;;;;;;5039187;28;19925;-78
2022/03/14 02:11:50;;;;;;;;;;;10.70;70.60;;;;;;5042093;28;20020;-77
2022/03/14 02:14:15;;;;;;;;;;;10.70;70.60;;;;;;5031837;28;19959;-78
2022/03/14 02:16:41;;;;;;;;;;;10.60;71.10;;;;;;5039318;28;20061;-78
2022/03/14 02:19:06;;;;;;;;;;;10.70;72.20;;;;;;5038187;28;19920;-78
2022/03/14 02:21:32;;;;;;;;;;;10.60;72.80;;;;;;5033347;28;19913;-78
2022/03/14 02:23:57;;;;;;;;;;;10.50;72.80;;;;;;5041523;28;19964;-77
2022/03/14 02:26:23;;;;;;;;;;;10.50;73.40;;;;;;5046719;28;19927;-78
2022/03/14 02:28:48;;;;;;;;;;;10.30;74.10;;;;;;5048356;28;19979;-78
2022/03/14 02:31:14;;;;;;;;;;;10.30;73.60;;;;;;5049105;28;19924;-78
2022/03/14 02:33:39;;;;;;;;;;;10.10;74.80;;;;;;5049473;28;19935;-78
2022/03/14 02:36:05;;;;;;;;;;;10.10;75.20;;;;;;5041072;28;19921;-77
2022/03/14 02:38:30;;;;;;;;;;;10.00;75.80;;;;;;5054521;28;19917;-77
2022/03/14 02:40:56;;;;;;;;;;;10.00;76.60;;;;;;5046878;28;19969;-77
2022/03/14 02:43:24;;;;;;;;;;;10.10;76.80;;;;;;5041048;28;20246;-77
2022/03/14 02:45:51;;;;;;;;;;;10.10;76.70;;;;;;5048214;28;19909;-76
2022/03/14 02:48:17;;;;;;;;;;;10.10;76.70;;;;;;5046856;28;20012;-77
2022/03/14 02:50:43;;;;;;;;;;;10.10;77.40;;;;;;5047701;28;20065;-77
2022/03/14 02:53:13;;;;;;;;;;;10.10;77.90;;;;;;5045065;28;20017;-78
2022/03/14 02:55:39;;;;;;;;;;;10.20;77.20;;;;;;5030517;28;20129;-77
2022/03/14 02:58:04;;;;;;;;;;;10.20;76.30;;;;;;5038926;28;19912;-78
2022/03/14 03:00:30;;;;;;;;;;;10.10;77.60;;;;;;5035370;28;19942;-78
2022/03/14 03:02:56;;;;;;;;;;;10.10;78.20;;;;;;5030146;28;20008;-79
2022/03/14 03:05:22;;;;;;;;;;;10.10;79.10;;;;;;5043461;28;20380;-79
2022/03/14 03:07:48;;;;;;;;;;;10.10;79.50;;;;;;5038015;28;20039;-79
2022/03/14 03:10:22;;;;;;;;;;;10.20;79.30;;;;;;5036501;28;19917;-79
2022/03/14 03:12:47;;;;;;;;;;;10.10;79.70;;;;;;5029873;28;20000;-79
2022/03/14 03:15:15;;;;;;;;;;;10.00;79.70;;;;;;5061110;28;19953;-78
2022/03/14 03:17:41;;;;;;;;;;;10.00;79.70;;;;;;5035565;28;19913;-79
2022/03/14 03:20:07;;;;;;;;;;;10.00;80.30;;;;;;5045990;28;19974;-79
2022/03/14 03:22:32;;;;;;;;;;;10.00;80.10;;;;;;5045514;28;20219;-79
2022/03/14 03:24:58;;;;;;;;;;;10.00;81.40;;;;;;5038541;28;19920;-78
2022/03/14 03:27:23;;;;;;;;;;;9.90;81.20;;;;;;5031936;28;19928;-78
2022/03/14 03:29:49;;;;;;;;;;;10.00;81.50;;;;;;5049342;28;20305;-79
2022/03/14 03:32:14;;;;;;;;;;;10.00;82.10;;;;;;5030095;28;19913;-78
2022/03/14 03:34:39;;;;;;;;;;;9.90;82.30;;;;;;5036124;28;20331;-78
2022/03/14 03:37:05;;;;;;;;;;;9.90;82.60;;;;;;5044809;28;19926;-78
2022/03/14 03:39:32;;;;;;;;;;;9.90;83.20;;;;;;5037934;28;19923;-78
2022/03/14 03:41:57;;;;;;;;;;;9.80;83.40;;;;;;5045304;28;20336;-78
2022/03/14 03:44:22;;;;;;;;;;;9.80;83.60;;;;;;5046014;28;19959;-78
2022/03/14 03:46:48;;;;;;;;;;;9.90;83.60;;;;;;5052572;28;19983;-78
2022/03/14 03:49:14;;;;;;;;;;;9.80;83.90;;;;;;5040400;28;19960;-77
2022/03/14 03:51:40;;;;;;;;;;;9.80;84.50;;;;;;5039910;28;19927;-78
2022/03/14 03:54:05;;;;;;;;;;;9.80;84.90;;;;;;5045469;28;20007;-78
2022/03/14 03:56:32;;;;;;;;;;;9.80;84.70;;;;;;5046316;28;20007;-78
2022/03/14 03:58:58;;;;;;;;;;;9.70;85.00;;;;;;5045223;28;20362;-79
2022/03/14 04:01:24;;;;;;;;;;;9.60;85.40;;;;;;5033755;28;19996;-79
2022/03/14 04:03:54;;;;;;;;;;;9.70;85.90;;;;;;5039163;28;19920;-79
2022/03/14 04:06:28;;;;;;;;;;;9.70;85.60;;;;;;5051236;28;19940;-79
2022/03/14 04:08:54;;;;;;;;;;;9.70;85.80;;;;;;5041827;28;19991;-78
2022/03/14 04:11:20;;;;;;;;;;;9.80;86.00;;;;;;5047690;28;19921;-78
2022/03/14 04:13:46;;;;;;;;;;;9.70;86.30;;;;;;5034107;28;19917;-79
2022/03/14 04:16:12;;;;;;;;;;;9.80;86.40;;;;;;5040170;28;19920;-79
2022/03/14 04:18:38;;;;;;;;;;;9.80;86.40;;;;;;5052470;28;20324;-79
2022/03/14 04:21:03;;;;;;;;;;;9.80;86.60;;;;;;5049222;28;19912;-78
2022/03/14 04:23:31;;;;;;;;;;;9.70;86.50;;;;;;5050465;28;20269;-79
2022/03/14 04:25:56;;;;;;;;;;;9.80;86.60;;;;;;5046261;28;19975;-79
2022/03/14 04:28:22;;;;;;;;;;;9.80;86.30;;;;;;5031200;28;20278;-80
2022/03/14 04:30:48;;;;;;;;;;;9.80;86.30;;;;;;5035553;28;19955;-79
2022/03/14 04:33:13;;;;;;;;;;;9.90;86.10;;;;;;5043338;28;19975;-80
2022/03/14 04:35:39;;;;;;;;;;;9.80;86.00;;;;;;5040399;28;19978;-80
2022/03/14 04:38:06;;;;;;;;;;;9.70;86.60;;;;;;5054345;28;20015;-80
2022/03/14 04:40:34;;;;;;;;;;;9.70;86.90;;;;;;5055447;28;19935;-80
2022/03/14 04:43:04;;;;;;;;;;;9.60;87.10;;;;;;5053309;28;19921;-81
2022/03/14 04:45:29;;;;;;;;;;;9.70;87.10;;;;;;5047347;28;19936;-80
2022/03/14 04:47:55;;;;;;;;;;;9.70;87.10;;;;;;5062158;28;19924;-80
2022/03/14 04:50:20;;;;;;;;;;;9.60;87.60;;;;;;5059756;28;19935;-80
2022/03/14 04:52:46;;;;;;;;;;;9.60;87.30;;;;;;5040111;28;19913;-81
2022/03/14 04:55:11;;;;;;;;;;;9.60;87.20;;;;;;5050918;28;19916;-80
2022/03/14 04:57:37;;;;;;;;;;;9.60;87.40;;;;;;5038902;28;19917;-81
2022/03/14 05:00:05;;;;;;;;;;;9.70;87.00;;;;;;5052307;28;19909;-81
2022/03/14 05:02:30;;;;;;;;;;;9.60;87.00;;;;;;5052983;28;19919;-81
2022/03/14 05:04:55;;;;;;;;;;;9.70;86.90;;;;;;5040370;28;19917;-81
2022/03/14 05:07:21;;;;;;;;;;;9.60;87.40;;;;;;5033882;28;19940;-81
2022/03/14 05:09:47;;;;;;;;;;;9.70;87.00;;;;;;5049044;28;19923;-81
2022/03/14 05:12:12;;;;;;;;;;;9.70;86.80;;;;;;5034912;28;19917;-82
2022/03/14 05:14:38;;;;;;;;;;;9.60;86.80;;;;;;5044811;28;20315;-81
2022/03/14 05:17:04;;;;;;;;;;;9.60;86.90;;;;;;5051291;28;20297;-82
2022/03/14 05:19:29;;;;;;;;;;;9.60;87.00;;;;;;5034252;28;19913;-82
2022/03/14 05:21:55;;;;;;;;;;;9.60;87.00;;;;;;5048644;28;20272;-82
2022/03/14 05:24:20;;;;;;;;;;;9.70;86.80;;;;;;5039283;28;19913;-81
2022/03/14 05:26:46;;;;;;;;;;;9.50;87.10;;;;;;5033877;28;19913;-81
2022/03/14 05:29:14;;;;;;;;;;;9.50;87.50;;;;;;5044838;28;20300;-81
2022/03/14 05:31:40;;;;;;;;;;;9.50;87.10;;;;;;5044004;28;20012;-80
2022/03/14 05:34:07;;;;;;;;;;;9.50;87.20;;;;;;5048148;28;20407;-81
2022/03/14 05:36:32;;;;;;;;;;;9.60;87.10;;;;;;5032637;28;19909;-79
2022/03/14 05:38:58;;;;;;;;;;;9.60;87.40;;;;;;5045041;28;19913;-80
2022/03/14 05:41:23;;;;;;;;;;;9.60;87.30;;;;;;5042844;28;19996;-80
2022/03/14 05:43:49;;;;;;;;;;;9.60;87.30;;;;;;5056629;28;19927;-80
2022/03/14 05:46:14;;;;;;;;;;;9.60;87.20;;;;;;5062741;28;20282;-78
2022/03/14 05:48:40;;;;;;;;;;;9.60;87.00;;;;;;5044843;28;19948;-80
2022/03/14 05:51:07;;;;;;;;;;;9.50;87.20;;;;;;5033155;28;19991;-78
2022/03/14 05:53:32;;;;;;;;;;;9.60;87.20;;;;;;5033488;28;19932;-78
2022/03/14 05:55:58;;;;;;;;;;;9.50;87.30;;;;;;5042884;28;19913;-78
2022/03/14 05:58:24;;;;;;;;;;;9.60;87.00;;;;;;5043511;28;20004;-78
2022/03/14 06:00:52;;;;;;;;;;;9.60;86.70;;;;;;5052998;28;19912;-79
2022/03/14 06:03:19;;;;;;;;;;;9.50;87.20;;;;;;5055129;28;19909;-79
2022/03/14 06:05:47;;;;;;;;;;;9.60;87.10;;;;;;5060539;28;20382;-79
2022/03/14 06:08:13;;;;;;;;;;;9.50;87.00;;;;;;5053608;28;19912;-79
2022/03/14 06:10:39;;;;;;;;;;;9.50;87.70;;;;;;5047410;28;19925;-81
2022/03/14 06:13:04;;;;;;;;;;;9.40;87.50;;;;;;5049042;28;19990;-81
2022/03/14 06:15:30;;;;;;;;;;;9.50;87.70;;;;;;5048199;28;19912;-80
2022/03/14 06:17:55;;;;;;;;;;;9.50;87.70;;;;;;5033593;28;19921;-81
2022/03/14 06:20:21;;;;;;;;;;;9.50;87.80;;;;;;5063246;28;19921;-80
2022/03/14 06:22:46;;;;;;;;;;;9.50;87.70;;;;;;5047678;28;19967;-84
2022/03/14 06:25:13;;;;;;;;;;;9.50;87.80;;;;;;5038005;28;19913;-80
2022/03/14 06:27:39;;;;;;;;;;;9.50;87.90;;;;;;5038727;28;20381;-79
2022/03/14 06:30:05;;;;;;;;;;;9.50;87.80;;;;;;5048100;28;20031;-80
2022/03/14 06:32:38;;;;;;;;;;;9.50;87.90;;;;;;5034022;28;19937;-81
2022/03/14 06:35:04;;;;;;;;;;;9.60;87.70;;;;;;5038592;28;19927;-80
2022/03/14 06:37:29;;;;;;;;;;;9.50;87.80;;;;;;5032399;28;20404;-78
2022/03/14 06:39:55;;;;;;;;;;;9.70;87.30;;;;;;5031922;28;20247;-78
2022/03/14 06:42:21;;;;;;;;;;;9.80;86.90;;;;;;5030684;28;20558;-78
2022/03/14 06:44:49;;;;;;;;;;;9.80;86.60;;;;;;5040647;28;20378;-77
2022/03/14 06:47:15;;;;;;;;;;;9.80;86.60;;;;;;5039446;28;20018;-78
2022/03/14 06:49:44;;;;;;;;;;;9.70;86.00;;;;;;5047468;28;20341;-77
2022/03/14 06:52:09;;;;;;;;;;;9.60;86.40;;;;;;5044028;28;19940;-77
2022/03/14 06:54:35;;;;;;;;;;;9.60;86.50;;;;;;5041726;28;19932;-77
2022/03/14 06:57:00;;;;;;;;;;;9.60;86.50;;;;;;5039937;28;19978;-77
2022/03/14 06:59:26;;;;;;;;;;;9.60;86.40;;;;;;5028064;28;19913;-77
2022/03/14 07:01:51;;;;;;;;;;;9.60;86.40;;;;;;5039724;28;19917;-77
2022/03/14 07:04:17;;;;;;;;;;;9.50;86.60;;;;;;5039101;28;19920;-77
2022/03/14 07:06:42;;;;;;;;;;;9.50;86.60;;;;;;5029579;28;19921;-77
2022/03/14 07:09:09;;;;;;;;;;;9.60;86.50;;;;;;5027265;28;19909;-77
2022/03/14 07:11:35;;;;;;;;;;;9.50;86.50;;;;;;5028293;28;19913;-77
2022/03/14 07:14:00;;;;;;;;;;;9.50;86.90;;;;;;5028545;28;19913;-77
2022/03/14 07:16:26;;;;;;;;;;;9.50;87.00;;;;;;5035151;28;20278;-78
2022/03/14 07:18:51;;;;;;;;;;;9.40;87.20;;;;;;5054451;28;19917;-78
2022/03/14 07:21:17;;;;;;;;;;;9.60;87.30;;;;;;5046116;28;19971;-77
2022/03/14 07:23:43;;;;;;;;;;;9.60;87.30;;;;;;5070270;28;19912;-78
2022/03/14 07:26:08;;;;;;;;;;;9.60;87.10;;;;;;5053127;28;19913;-77
2022/03/14 07:28:34;;;;;;;;;;;9.60;86.50;;;;;;5045419;28;19925;-78
2022/03/14 07:30:59;;;;;;;;;;;9.70;86.20;;;;;;5042599;28;19917;-78
2022/03/14 07:33:25;;;;;;;;;;;9.70;86.20;;;;;;5067261;28;19917;-78
2022/03/14 07:35:51;;;;;;;;;;;9.60;86.00;;;;;;5047583;28;19935;-78
2022/03/14 07:38:16;;;;;;;;;;;9.70;86.30;;;;;;5051832;28;19928;-78
2022/03/14 07:40:42;;;;;;;;;;;9.60;86.10;;;;;;5049223;28;20003;-78
2022/03/14 07:43:08;;;;;;;;;;;9.60;86.30;;;;;;5046134;28;19912;-77
2022/03/14 07:45:34;;;;;;;;;;;9.60;86.40;;;;;;5040301;28;19913;-79
2022/03/14 07:48:00;;;;;;;;;;;9.70;86.00;;;;;;5048484;28;19929;-78
2022/03/14 07:50:26;;;;;;;;;;;9.80;85.70;;;;;;5048716;28;19925;-78
2022/03/14 07:52:52;;;;;;;;;;;9.90;85.60;;;;;;5047195;28;19916;-78
2022/03/14 07:55:17;;;;;;;;;;;10.00;85.50;;;;;;5047838;28;19920;-79
2022/03/14 07:57:43;;;;;;;;;;;10.00;84.80;;;;;;5032040;28;19910;-79
2022/03/14 08:00:10;;;;;;;;;;;10.00;85.00;;;;;;5030008;28;19917;-79
2022/03/14 08:02:36;;;;;;;;;;;10.00;85.00;;;;;;5030390;28;19970;-78
2022/03/14 08:05:01;;;;;;;;;;;10.10;85.30;;;;;;5033179;28;20386;-80
2022/03/14 08:07:28;;;;;;;;;;;10.10;85.00;;;;;;5031984;28;20006;-79
2022/03/14 08:09:54;;;;;;;;;;;10.20;84.60;;;;;;5037675;28;19917;-79
2022/03/14 08:12:21;;;;;;;;;;;10.30;84.40;;;;;;5049362;28;21683;-79
2022/03/14 08:14:47;;;;;;;;;;;10.40;84.10;;;;;;5040637;28;19917;-80
2022/03/14 08:17:13;;;;;;;;;;;10.50;84.20;;;;;;5037314;28;20399;-80
2022/03/14 08:19:39;;;;;;;;;;;10.50;84.20;;;;;;5040447;28;19913;-79
2022/03/14 08:22:04;;;;;;;;;;;10.60;84.00;;;;;;5049720;28;20333;-78
2022/03/14 08:24:30;;;;;;;;;;;10.60;83.30;;;;;;5044868;28;20000;-79
2022/03/14 08:26:56;;;;;;;;;;;10.60;82.70;;;;;;5036596;28;19909;-79
2022/03/14 08:29:21;;;;;;;;;;;10.50;82.50;;;;;;5039044;28;19942;-79
2022/03/14 08:31:47;;;;;;;;;;;10.50;82.70;;;;;;5049770;28;19921;-78
2022/03/14 08:34:13;;;;;;;;;;;10.40;82.40;;;;;;5041050;28;19913;-79
2022/03/14 08:36:40;;;;;;;;;;;10.50;82.70;;;;;;5032642;28;20281;-78
2022/03/14 08:39:09;;;;;;;;;;;10.50;82.60;;;;;;5031017;28;20348;-78
2022/03/14 08:41:36;;;;;;;;;;;10.30;82.60;;;;;;5033827;28;19972;-78
2022/03/14 08:44:06;;;;;;;;;;;10.30;83.20;;;;;;5038818;28;19913;-78
2022/03/14 08:46:31;;;;;;;;;;;10.30;83.20;;;;;;5037905;28;19914;-78
2022/03/14 08:48:58;;;;;;;;;;;10.30;83.30;;;;;;5048725;28;19917;-78
2022/03/14 08:51:24;;;;;;;;;;;10.30;83.20;;;;;;5051073;28;19919;-78
2022/03/14 08:53:49;;;;;;;;;;;10.30;83.30;;;;;;5050235;28;19920;-78
2022/03/14 08:56:14;;;;;;;;;;;10.30;83.20;;;;;;5040085;28;19913;-78
2022/03/14 08:58:40;;;;;;;;;;;10.40;83.70;;;;;;5030756;28;20281;-78
2022/03/14 09:01:07;;;;;;;;;;;10.60;82.80;;;;;;5032039;28;19917;-78
2022/03/14 09:03:32;;;;;;;;;;;10.50;82.50;;;;;;5031180;28;19910;-77
2022/03/14 09:05:58;;;;;;;;;;;10.60;82.40;;;;;;5030488;28;19972;-78
2022/03/14 09:08:27;;;;;;;;;;;10.60;81.90;;;;;;5031563;28;20598;-77
2022/03/14 09:10:53;;;;;;;;;;;10.60;82.30;;;;;;5028663;28;19917;-78
2022/03/14 09:13:20;;;;;;;;;;;10.60;82.60;;;;;;5032988;28;19913;-77
2022/03/14 09:15:47;;;;;;;;;;;10.80;82.30;;;;;;5033908;28;20423;-78
2022/03/14 09:18:14;;;;;;;;;;;10.90;81.30;;;;;;5031054;28;20453;-78
2022/03/14 09:20:40;;;;;;;;;;;11.00;81.10;;;;;;5031723;28;20230;-78
2022/03/14 09:23:06;;;;;;;;;;;11.00;80.00;;;;;;5042401;28;19913;-79
2022/03/14 09:25:32;;;;;;;;;;;10.90;80.20;;;;;;5072839;28;19975;-80
2022/03/14 09:27:58;;;;;;;;;;;10.80;81.10;;;;;;5041929;28;19917;-80
2022/03/14 09:30:24;;;;;;;;;;;10.80;81.10;;;;;;5071773;28;19917;-79
2022/03/14 09:32:51;;;;;;;;;;;10.80;81.20;;;;;;5041800;28;19913;-79
2022/03/14 09:35:16;;;;;;;;;;;10.70;80.50;;;;;;5041114;28;19973;-80
2022/03/14 09:37:42;;;;;;;;;;;10.60;81.30;;;;;;5059014;28;19940;-77
2022/03/14 09:40:10;;;;;;;;;;;10.60;81.30;;;;;;5058193;28;19909;-78
2022/03/14 09:42:39;;;;;;;;;;;10.80;81.00;;;;;;5072000;28;19913;-78
2022/03/14 09:45:05;;;;;;;;;;;10.90;80.70;;;;;;5059516;28;20004;-78
2022/03/14 09:47:39;;;;;;;;;;;10.80;80.50;;;;;;5050153;28;20015;-80
2022/03/14 09:50:07;;;;;;;;;;;10.80;80.40;;;;;;5053714;28;19996;-79
2022/03/14 09:52:35;;;;;;;;;;;10.90;80.50;;;;;;5060141;28;20333;-80
2022/03/14 09:55:00;;;;;;;;;;;10.90;80.10;;;;;;5060131;28;19912;-80
2022/03/14 09:57:26;;;;;;;;;;;11.00;80.00;;;;;;5060350;28;19999;-79
2022/03/14 09:59:53;;;;;;;;;;;11.20;79.80;;;;;;5057651;28;19915;-77
2022/03/14 10:02:18;;;;;;;;;;;11.30;79.40;;;;;;5046860;28;19916;-77
2022/03/14 10:04:44;;;;;;;;;;;11.50;78.80;;;;;;5055577;28;20071;-80
2022/03/14 10:07:10;;;;;;;;;;;11.70;78.20;;;;;;5058539;28;19909;-78
2022/03/14 10:09:37;;;;;;;;;;;11.70;77.90;;;;;;5038145;28;19967;-78
2022/03/14 10:12:02;;;;;;;;;;;11.70;76.70;;;;;;5037390;28;20015;-80
2022/03/14 10:14:28;;;;;;;;;;;11.70;76.80;;;;;;5037987;28;20350;-79
2022/03/14 10:16:55;;;;;;;;;;;11.60;76.60;;;;;;5038120;28;19917;-80
2022/03/14 10:19:28;;;;;;;;;;;11.60;76.60;;;;;;5048100;28;19913;-79
2022/03/14 10:21:53;;;;;;;;;;;11.60;77.00;;;;;;5048488;28;19976;-77
2022/03/14 10:24:22;;;;;;;;;;;11.50;76.80;;;;;;5065230;28;19962;-79
2022/03/14 10:26:48;;;;;;;;;;;11.60;76.30;;;;;;5064039;28;19917;-78
2022/03/14 10:29:14;;;;;;;;;;;11.70;76.00;;;;;;5044994;28;19936;-78
2022/03/14 10:31:45;;;;;;;;;;;11.60;77.00;;;;;;5074893;28;19924;-78
2022/03/14 10:34:11;;;;;;;;;;;11.60;77.30;;;;;;5055969;28;19915;-78
2022/03/14 10:36:42;;;;;;;;;;;11.70;77.00;;;;;;5044093;28;19928;-77
2022/03/14 10:39:12;;;;;;;;;;;11.60;76.00;;;;;;5049698;28;19923;-77
2022/03/14 10:41:39;;;;;;;;;;;11.60;75.50;;;;;;5055967;28;19940;-77
2022/03/14 10:44:05;;;;;;;;;;;11.30;76.30;;;;;;5050520;28;19991;-78
2022/03/14 10:46:31;;;;;;;;;;;11.30;77.10;;;;;;5054440;28;19924;-77
2022/03/14 10:48:56;;;;;;;;;;;11.30;76.50;;;;;;5046209;28;19913;-78
2022/03/14 10:51:22;;;;;;;;;;;11.30;75.50;;;;;;5038281;28;19972;-78
2022/03/14 10:53:48;;;;;;;;;;;11.30;76.20;;;;;;5054742;28;19927;-78
2022/03/14 10:56:14;;;;;;;;;;;11.20;76.50;;;;;;5040766;28;19913;-78
2022/03/14 10:58:40;;;;;;;;;;;11.10;75.90;;;;;;5057563;28;20028;-77
2022/03/14 11:01:06;;;;;;;;;;;11.00;76.10;;;;;;5044450;28;20024;-78
2022/03/14 11:03:33;;;;;;;;;;;11.10;77.10;;;;;;5042772;28;20004;-77
2022/03/14 11:06:00;;;;;;;;;;;11.00;76.50;;;;;;5060771;28;20113;-77
2022/03/14 11:08:45;;;;;;;;;;;10.90;77.30;;;;;;5060987;28;19915;-78
2022/03/14 11:11:12;;;;;;;;;;;11.00;77.10;;;;;;5053933;28;19927;-78
2022/03/14 11:13:38;;;;;;;;;;;11.10;77.70;;;;;;5056334;28;19924;-78
2022/03/14 11:16:04;;;;;;;;;;;11.30;77.10;;;;;;5047891;28;20018;-78
2022/03/14 11:18:30;;;;;;;;;;;11.50;76.30;;;;;;5052675;28;20079;-78
2022/03/14 11:20:59;;;;;;;;;;;11.70;75.40;;;;;;5050880;28;19916;-77
2022/03/14 11:23:25;;;;;;;;;;;11.80;75.90;;;;;;5048346;28;20003;-78
2022/03/14 11:25:51;;;;;;;;;;;11.80;73.90;;;;;;5044894;28;19923;-78
2022/03/14 11:28:18;;;;;;;;;;;11.90;74.30;;;;;;5037251;28;20400;-77
2022/03/14 11:30:48;;;;;;;;;;;11.90;74.10;;;;;;5031454;28;19928;-77
2022/03/14 11:33:14;;;;;;;;;;;12.00;73.90;;;;;;5036075;28;19962;-77
2022/03/14 11:35:41;;;;;;;;;;;12.00;73.10;;;;;;5040548;28;19913;-78
2022/03/14 11:38:08;;;;;;;;;;;11.90;72.80;;;;;;5032061;28;19923;-78
2022/03/14 11:40:35;;;;;;;;;;;12.00;73.10;;;;;;5027344;28;20374;-76
2022/03/14 11:43:01;;;;;;;;;;;12.10;71.70;;;;;;5037762;28;19924;-78
2022/03/14 11:45:27;;;;;;;;;;;12.10;71.20;;;;;;5038252;28;20296;-77
2022/03/14 11:47:53;;;;;;;;;;;12.20;70.20;;;;;;5041190;28;19923;-77
2022/03/14 11:50:20;;;;;;;;;;;12.40;71.90;;;;;;5049576;28;19940;-77
2022/03/14 11:52:50;;;;;;;;;;;12.50;71.00;;;;;;5047555;28;19924;-77
2022/03/14 11:55:15;;;;;;;;;;;12.30;71.00;;;;;;5036076;28;19960;-78
2022/03/14 11:57:41;;;;;;;;;;;12.30;71.50;;;;;;5047305;28;19913;-78
2022/03/14 12:00:22;;;;;;;;;;;12.50;70.70;;;;;;5046776;28;19916;-77
2022/03/14 12:02:48;;;;;;;;;;;12.70;70.10;;;;;;5043079;28;19924;-78
2022/03/14 12:05:14;;;;;;;;;;;12.80;68.80;;;;;;5039443;28;19913;-78
2022/03/14 12:07:39;;;;;;;;;;;13.00;69.60;;;;;;5034502;28;19913;-77
2022/03/14 12:10:23;;;;;;;;;;;13.10;67.20;;;;;;5039452;28;20245;-77
2022/03/14 12:12:53;;;;;;;;;;;13.10;67.50;;;;;;5048099;28;19924;-77
2022/03/14 12:15:37;;;;;;;;;;;13.10;68.60;;;;;;5054425;28;19916;-78
2022/03/14 12:18:25;;;;;;;;;;;13.00;68.60;;;;;;5046288;28;19917;-78
2022/03/14 12:20:55;;;;;;;;;;;13.10;68.20;;;;;;5035635;28;19913;-78
2022/03/14 12:23:25;;;;;;;;;;;13.30;65.60;;;;;;5048167;28;19912;-78
2022/03/14 12:25:51;;;;;;;;;;;13.30;65.50;;;;;;5033388;28;19924;-78
2022/03/14 12:28:27;;;;;;;;;;;13.40;63.70;;;;;;5042148;28;19924;-78
2022/03/14 12:30:57;;;;;;;;;;;13.60;64.60;;;;;;5052447;28;19913;-77
2022/03/14 12:33:29;;;;;;;;;;;13.50;62.90;;;;;;5037506;28;20289;-78
2022/03/14 12:35:54;;;;;;;;;;;13.60;63.60;;;;;;5044079;28;19931;-77
2022/03/14 12:38:21;;;;;;;;;;;13.50;64.50;;;;;;5042274;28;19916;-78
2022/03/14 12:40:48;;;;;;;;;;;13.50;64.00;;;;;;5033527;28;19940;-78
2022/03/14 12:43:31;;;;;;;;;;;13.50;65.00;;;;;;5037590;28;19920;-78
2022/03/14 12:45:58;;;;;;;;;;;13.40;64.40;;;;;;5046811;28;19913;-78
2022/03/14 12:48:27;;;;;;;;;;;13.10;64.80;;;;;;5055251;28;20011;-78
2022/03/14 12:50:54;;;;;;;;;;;13.00;65.50;;;;;;5053629;28;19943;-79
2022/03/14 12:53:27;;;;;;;;;;;13.00;65.20;;;;;;5049125;28;20211;-78
2022/03/14 12:55:53;;;;;;;;;;;13.00;65.00;;;;;;5057019;28;19917;-78
2022/03/14 12:58:26;;;;;;;;;;;13.10;65.40;;;;;;5055486;28;20448;-78
2022/03/14 13:00:56;;;;;;;;;;;13.20;65.70;;;;;;5051235;28;19987;-79
2022/03/14 13:03:23;;;;;;;;;;;13.20;65.50;;;;;;5037574;28;19913;-79
2022/03/14 13:05:50;;;;;;;;;;;13.20;63.40;;;;;;5034713;28;19931;-78
2022/03/14 13:08:16;;;;;;;;;;;13.10;64.60;;;;;;5054646;28;19963;-80
2022/03/14 13:10:42;;;;;;;;;;;13.10;63.50;;;;;;5053533;28;19913;-80
2022/03/14 13:13:09;;;;;;;;;;;13.10;65.10;;;;;;5044206;28;19917;-80
2022/03/14 13:15:36;;;;;;;;;;;13.10;65.80;;;;;;5033695;28;19917;-80
2022/03/14 13:18:03;;;;;;;;;;;13.10;65.10;;;;;;5032876;28;19914;-81
2022/03/14 13:20:29;;;;;;;;;;;13.10;65.10;;;;;;5033700;28;19931;-81
2022/03/14 13:22:58;;;;;;;;;;;13.10;65.70;;;;;;5050273;28;19999;-80
2022/03/14 13:25:30;;;;;;;;;;;13.10;66.10;;;;;;5069390;28;20412;-80
2022/03/14 13:27:56;;;;;;;;;;;13.10;66.00;;;;;;5046544;28;19924;-80
2022/03/14 13:30:21;;;;;;;;;;;13.20;66.90;;;;;;5040329;28;19917;-78
2022/03/14 13:32:47;;;;;;;;;;;13.20;66.40;;;;;;5050915;28;20011;-79
2022/03/14 13:35:13;;;;;;;;;;;13.10;66.70;;;;;;5049585;28;20409;-78
2022/03/14 13:37:46;;;;;;;;;;;13.00;67.60;;;;;;5054463;28;19967;-81
2022/03/14 13:40:21;;;;;;;;;;;12.90;67.80;;;;;;5046925;28;20278;-77
2022/03/14 13:42:47;;;;;;;;;;;12.90;67.50;;;;;;5055608;28;19913;-78
2022/03/14 13:45:13;;;;;;;;;;;12.80;67.70;;;;;;5048562;28;19971;-80
2022/03/14 13:47:38;;;;;;;;;;;12.60;67.90;;;;;;5051276;28;20000;-78
2022/03/14 13:50:04;;;;;;;;;;;12.60;70.10;;;;;;5057885;28;19920;-80
2022/03/14 13:52:30;;;;;;;;;;;12.60;70.60;;;;;;5050553;28;19912;-79
2022/03/14 13:54:55;;;;;;;;;;;12.40;70.60;;;;;;5051018;28;20095;-78
2022/03/14 13:57:21;;;;;;;;;;;12.30;71.70;;;;;;5053592;28;19909;-77
2022/03/14 13:59:48;;;;;;;;;;;12.30;71.00;;;;;;5031050;28;19998;-77
2022/03/14 14:02:15;;;;;;;;;;;12.20;72.40;;;;;;5069787;28;20427;-80
2022/03/14 14:04:45;;;;;;;;;;;12.10;73.10;;;;;;5047558;28;20284;-76
2022/03/14 14:07:20;;;;;;;;;;;12.20;73.60;;;;;;5047868;28;19948;-76
2022/03/14 14:09:47;;;;;;;;;;;12.20;73.90;;;;;;5060245;28;20352;-80
2022/03/14 14:12:15;;;;;;;;;;;12.30;73.70;;;;;;5052502;28;19980;-81
2022/03/14 14:14:45;;;;;;;;;;;12.50;72.90;;;;;;5044374;28;19968;-79
2022/03/14 14:17:15;;;;;;;;;;;12.80;73.80;;;;;;5049465;28;20051;-78